Time;durP1;ratioP1;P1;durP2;ratioP2;P2;SDS_P1;SDS_P2;PMS_P1;PMS_P2;Temp;Humidity;BMP_temperature;BMP_pressure;BME280_temperature;BME280_humidity;BME280_pressure;Samples;Min_cycle;Max_cycle;Signal;HPM_P1;HPM_P2
2023/06/18 00:02:05;;;;;;;7.18;6.57;;;22.70;49.80;;;;;;5006962;28;20045;-49
2023/06/18 00:04:32;;;;;;;6.68;6.07;;;22.60;49.70;;;;;;5010858;28;20117;-50
2023/06/18 00:07:06;;;;;;;6.20;5.70;;;22.60;49.70;;;;;;5009850;28;20088;-51
2023/06/18 00:09:35;;;;;;;6.57;5.90;;;22.60;49.70;;;;;;5010762;28;20037;-50
2023/06/18 00:12:05;;;;;;;6.47;5.97;;;22.50;50.00;;;;;;5004488;28;20718;-50
2023/06/18 00:14:34;;;;;;;6.35;5.85;;;22.50;49.60;;;;;;5011078;28;20452;-49
2023/06/18 00:17:03;;;;;;;7.05;6.45;;;22.40;49.70;;;;;;5010844;28;20098;-52
2023/06/18 00:19:30;;;;;;;6.60;6.00;;;22.30;49.80;;;;;;5004507;28;20132;-50
2023/06/18 00:21:59;;;;;;;7.50;5.63;;;22.30;50.00;;;;;;5008919;28;20062;-51
2023/06/18 00:24:26;;;;;;;6.80;6.28;;;22.20;49.90;;;;;;5006132;28;20038;-51
2023/06/18 00:26:56;;;;;;;7.55;6.85;;;22.10;50.00;;;;;;5010464;28;20397;-51
2023/06/18 00:29:30;;;;;;;6.85;6.20;;;22.00;50.70;;;;;;5009855;28;20076;-46
2023/06/18 00:31:56;;;;;;;6.82;6.22;;;22.00;50.00;;;;;;5008658;28;20572;-51
2023/06/18 00:34:32;;;;;;;7.07;6.40;;;21.90;50.20;;;;;;5003167;28;20112;-50
2023/06/18 00:37:00;;;;;;;6.38;5.78;;;21.80;50.30;;;;;;4991713;28;20046;-50
2023/06/18 00:39:27;;;;;;;7.07;6.32;;;21.70;50.30;;;;;;5010297;28;20105;-51
2023/06/18 00:42:01;;;;;;;7.35;5.85;;;21.70;50.40;;;;;;4990142;28;20096;-49
2023/06/18 00:44:29;;;;;;;7.00;6.07;;;21.60;50.50;;;;;;4986308;28;20552;-52
2023/06/18 00:46:59;;;;;;;6.43;5.82;;;21.50;50.60;;;;;;4991931;28;20042;-50
2023/06/18 00:49:28;;;;;;;6.43;5.90;;;21.40;50.70;;;;;;5010078;28;20044;-51
2023/06/18 00:52:01;;;;;;;7.28;5.88;;;21.40;50.70;;;;;;5009388;28;20048;-51
2023/06/18 00:54:35;;;;;;;6.97;6.38;;;21.30;50.80;;;;;;4983170;28;20077;-51
2023/06/18 00:57:08;;;;;;;6.75;6.15;;;21.30;50.90;;;;;;5007613;28;20050;-47
2023/06/18 00:59:37;;;;;;;7.20;6.50;;;21.20;51.20;;;;;;5008527;28;20041;-48
2023/06/18 01:02:08;;;;;;;7.72;6.55;;;21.10;51.00;;;;;;5005338;28;20046;-49
2023/06/18 01:04:37;;;;;;;10.20;6.05;;;21.00;51.00;;;;;;5004922;28;20034;-51
2023/06/18 01:07:12;;;;;;;6.75;6.13;;;20.90;51.10;;;;;;4991222;28;20554;-49
2023/06/18 01:09:53;;;;;;;6.63;6.03;;;20.90;51.30;;;;;;5010035;28;20132;-48
2023/06/18 01:12:29;;;;;;;6.63;6.03;;;20.80;51.30;;;;;;5004282;28;20042;-49
2023/06/18 01:14:57;;;;;;;6.50;5.90;;;20.80;51.70;;;;;;4992044;28;20081;-51
2023/06/18 01:17:29;;;;;;;6.35;5.85;;;20.70;51.40;;;;;;5009095;28;20115;-48
2023/06/18 01:20:12;;;;;;;6.43;5.93;;;20.60;51.60;;;;;;5004818;28;20045;-51
2023/06/18 01:23:01;;;;;;;7.00;6.30;;;20.60;51.90;;;;;;5004021;28;20088;-48
2023/06/18 01:25:36;;;;;;;7.07;6.38;;;20.50;51.90;;;;;;5003823;28;20552;-48
2023/06/18 01:28:07;;;;;;;7.00;6.35;;;20.50;52.00;;;;;;4990895;28;20069;-50
2023/06/18 01:30:39;;;;;;;6.35;5.75;;;20.40;51.80;;;;;;5008648;28;20049;-51
2023/06/18 01:33:14;;;;;;;7.57;6.43;;;20.40;52.30;;;;;;4985646;28;20084;-48
2023/06/18 01:35:41;;;;;;;7.10;6.40;;;20.30;52.40;;;;;;4995175;28;20078;-46
2023/06/18 01:38:30;;;;;;;6.47;5.95;;;20.30;52.40;;;;;;5012339;28;20073;-50
2023/06/18 01:41:18;;;;;;;7.80;6.53;;;20.30;53.10;;;;;;4995566;28;20132;-50
2023/06/18 01:43:52;;;;;;;6.80;6.05;;;20.20;52.90;;;;;;5008707;28;20487;-50
2023/06/18 01:46:22;;;;;;;6.53;6.00;;;20.20;52.70;;;;;;5007663;28;20077;-50
2023/06/18 01:49:03;;;;;;;6.63;6.03;;;20.10;52.40;;;;;;5012712;28;20651;-51
2023/06/18 01:51:31;;;;;;;7.78;6.95;;;20.10;53.00;;;;;;4995435;28;20095;-50
2023/06/18 01:54:01;;;;;;;6.88;6.32;;;20.10;52.50;;;;;;4986798;28;20049;-50
2023/06/18 01:56:32;;;;;;;6.07;5.57;;;20.00;52.60;;;;;;5006366;28;20575;-48
2023/06/18 01:59:01;;;;;;;6.28;5.68;;;20.00;52.80;;;;;;4994887;28;20042;-48
2023/06/18 02:01:31;;;;;;;5.97;5.38;;;19.90;52.60;;;;;;4991975;28;20128;-50
2023/06/18 02:04:00;;;;;;;6.53;5.70;;;19.90;52.60;;;;;;5009364;28;20446;-50
2023/06/18 02:06:28;;;;;;;6.25;5.72;;;19.80;52.80;;;;;;4994612;28;20620;-50
2023/06/18 02:08:56;;;;;;;7.72;6.95;;;19.80;52.70;;;;;;4995098;28;20425;-49
2023/06/18 02:11:23;;;;;;;7.15;6.60;;;19.80;52.80;;;;;;5007959;28;20569;-51
2023/06/18 02:13:53;;;;;;;6.95;6.35;;;19.70;52.80;;;;;;5012178;28;20050;-48
2023/06/18 02:16:20;;;;;;;6.55;5.95;;;19.70;52.90;;;;;;4994916;28;20495;-48
2023/06/18 02:18:47;;;;;;;6.93;6.32;;;19.70;52.90;;;;;;5009374;28;20041;-49
2023/06/18 02:21:16;;;;;;;7.25;6.65;;;19.60;52.90;;;;;;5011752;28;20057;-49
2023/06/18 02:23:46;;;;;;;;;;;19.60;53.00;;;;;;5007012;28;20096;-51
2023/06/18 02:26:13;;;;;;;6.75;6.13;;;19.70;52.50;;;;;;5010378;28;19929;-51
2023/06/18 02:28:40;;;;;;;6.35;5.85;;;19.60;52.60;;;;;;5011992;28;20569;-50
2023/06/18 02:31:07;;;;;;;7.43;6.72;;;19.50;52.80;;;;;;4993960;28;20049;-49
2023/06/18 02:33:34;;;;;;;6.93;5.93;;;19.50;52.90;;;;;;5010275;28;20101;-50
2023/06/18 02:36:01;;;;;;;6.85;6.22;;;19.40;52.90;;;;;;4994678;28;20104;-47
2023/06/18 02:38:28;;;;;;;6.50;5.93;;;19.40;53.00;;;;;;5011639;28;20104;-51
2023/06/18 02:40:57;;;;;;;6.72;6.13;;;19.40;53.00;;;;;;4992551;28;20096;-50
2023/06/18 02:43:32;;;;;;;6.97;6.18;;;19.30;53.10;;;;;;5008901;28;20092;-51
2023/06/18 02:46:07;;;;;;;7.40;6.40;;;19.30;53.20;;;;;;4995236;28;20134;-51
2023/06/18 02:48:35;;;;;;;8.80;6.88;;;19.30;53.50;;;;;;5010789;28;20054;-48
2023/06/18 02:51:05;;;;;;;6.78;6.18;;;19.20;53.50;;;;;;4989098;28;20081;-51
2023/06/18 02:53:37;;;;;;;7.53;6.70;;;19.20;53.50;;;;;;5001353;28;20161;-51
2023/06/18 02:56:03;;;;;;;7.05;6.47;;;19.20;53.70;;;;;;4994954;28;20081;-51
2023/06/18 02:58:35;;;;;;;8.25;6.57;;;19.20;53.70;;;;;;5011949;28;20401;-49
2023/06/18 03:01:08;;;;;;;7.47;6.68;;;19.20;53.80;;;;;;5010593;28;20156;-50
2023/06/18 03:03:42;;;;;;;7.70;7.00;;;19.10;53.80;;;;;;5009722;28;20410;-49
2023/06/18 03:06:11;;;;;;;7.43;6.68;;;19.10;53.80;;;;;;4994405;28;20446;-51
2023/06/18 03:08:40;;;;;;;7.35;6.75;;;19.10;53.80;;;;;;4993895;28;20056;-51
2023/06/18 03:11:07;;;;;;;6.70;6.07;;;19.10;53.90;;;;;;4992854;28;20042;-51
2023/06/18 03:13:35;;;;;;;7.55;6.82;;;19.00;53.90;;;;;;4993927;28;20096;-50
2023/06/18 03:16:02;;;;;;;9.35;7.00;;;19.00;54.00;;;;;;4993782;28;20621;-50
2023/06/18 03:18:38;;;;;;;7.10;6.45;;;19.00;54.00;;;;;;5010261;28;20089;-51
2023/06/18 03:21:08;;;;;;;7.65;6.85;;;19.00;54.20;;;;;;4989457;28;20050;-50
2023/06/18 03:23:37;;;;;;;7.75;6.50;;;18.90;54.20;;;;;;4988417;28;20125;-51
2023/06/18 03:26:07;;;;;;;8.30;6.88;;;18.90;54.40;;;;;;4989666;28;20396;-48
2023/06/18 03:28:36;;;;;;;8.20;7.40;;;18.90;54.40;;;;;;5010125;28;20471;-50
2023/06/18 03:31:03;;;;;;;7.28;6.47;;;18.90;54.60;;;;;;4994015;28;20136;-50
2023/06/18 03:33:33;;;;;;;8.13;7.38;;;18.80;54.70;;;;;;5009961;28;20561;-50
2023/06/18 03:36:00;;;;;;;6.60;5.90;;;18.80;54.70;;;;;;5009411;28;20530;-50
2023/06/18 03:38:36;;;;;;;8.07;6.68;;;18.80;54.70;;;;;;4993306;28;20498;-47
2023/06/18 03:41:05;;;;;;;7.18;6.47;;;19.00;54.90;;;;;;4985661;23;20053;-51
2023/06/18 03:43:37;;;;;;;8.27;7.32;;;18.80;54.80;;;;;;4983114;28;20038;-51
2023/06/18 03:46:09;;;;;;;10.82;6.50;;;18.80;55.20;;;;;;4993140;28;20046;-51
2023/06/18 03:48:39;;;;;;;9.35;6.13;;;18.80;55.30;;;;;;4993555;28;20498;-51
2023/06/18 03:51:09;;;;;;;8.95;6.65;;;18.80;55.20;;;;;;4975811;28;20125;-50
2023/06/18 03:53:40;;;;;;;7.20;6.50;;;18.90;55.20;;;;;;4979458;28;20062;-50
2023/06/18 03:56:09;;;;;;;6.82;6.18;;;18.90;55.60;;;;;;4991669;28;20410;-46
2023/06/18 03:58:36;;;;;;;6.63;6.13;;;18.90;55.40;;;;;;5010475;28;20121;-47
2023/06/18 04:01:03;;;;;;;7.25;6.50;;;18.90;55.60;;;;;;4993674;28;20046;-52
2023/06/18 04:03:30;;;;;;;9.13;6.60;;;19.00;55.80;;;;;;4974896;28;20038;-52
2023/06/18 04:06:03;;;;;;;7.53;6.50;;;19.00;56.00;;;;;;4990076;28;20599;-52
2023/06/18 04:08:30;;;;;;;6.85;6.20;;;19.00;56.00;;;;;;5006154;28;20431;-51
2023/06/18 04:11:03;;;;;;;6.95;6.35;;;19.00;56.20;;;;;;4999520;28;20050;-52
2023/06/18 04:13:30;;;;;;;7.80;6.72;;;19.10;56.80;;;;;;4993585;28;20113;-51
2023/06/18 04:16:02;;;;;;;7.95;7.15;;;19.10;56.70;;;;;;4992242;28;20125;-52
2023/06/18 04:18:30;;;;;;;8.15;6.95;;;19.20;57.00;;;;;;4992603;28;20034;-51
2023/06/18 04:21:01;;;;;;;9.45;6.72;;;19.20;57.00;;;;;;4983942;28;20058;-51
2023/06/18 04:23:32;;;;;;;9.50;6.87;;;19.30;57.30;;;;;;4966588;28;20035;-52
2023/06/18 04:26:03;;;;;;;11.65;7.63;;;19.40;57.40;;;;;;4974022;28;20042;-51
2023/06/18 04:28:36;;;;;;;8.80;7.90;;;19.40;57.90;;;;;;4992225;28;20034;-52
2023/06/18 04:31:08;;;;;;;8.07;6.57;;;19.40;57.50;;;;;;5009735;28;20127;-51
2023/06/18 04:33:37;;;;;;;7.72;6.25;;;19.60;57.50;;;;;;4976668;28;20117;-50
2023/06/18 04:36:04;;;;;;;12.52;7.13;;;19.60;58.00;;;;;;5000890;28;20034;-50
2023/06/18 04:38:38;;;;;;;10.30;7.13;;;19.70;58.00;;;;;;5009284;28;20388;-48
2023/06/18 04:41:07;;;;;;;9.73;6.75;;;19.70;58.30;;;;;;4991850;28;20045;-50
2023/06/18 04:43:45;;;;;;;8.27;6.90;;;19.80;58.20;;;;;;4977809;28;20125;-46
2023/06/18 04:46:13;;;;;;;8.70;6.70;;;19.90;59.00;;;;;;4991927;28;20046;-49
2023/06/18 04:48:41;;;;;;;7.50;6.18;;;19.90;58.40;;;;;;4992399;28;20525;-48
2023/06/18 04:51:08;;;;;;;8.32;6.68;;;20.00;58.30;;;;;;4974665;28;20055;-48
2023/06/18 04:53:47;;;;;;;8.55;6.60;;;20.00;58.40;;;;;;4980919;28;20066;-50
2023/06/18 04:56:13;;;;;;;9.48;6.60;;;20.10;58.40;;;;;;4974884;28;20047;-50
2023/06/18 04:58:41;;;;;;;8.82;6.32;;;20.20;58.50;;;;;;4986860;28;20042;-50
2023/06/18 05:01:09;;;;;;;7.85;6.72;;;20.20;58.40;;;;;;4991074;28;20069;-50
2023/06/18 05:03:37;;;;;;;8.73;7.50;;;20.30;58.50;;;;;;4972260;28;20043;-51
2023/06/18 05:06:04;;;;;;;10.50;7.57;;;20.30;58.50;;;;;;4986064;28;20049;-51
2023/06/18 05:08:34;;;;;;;12.45;7.10;;;20.40;58.60;;;;;;4991445;28;20125;-51
2023/06/18 05:11:01;;;;;;;12.32;6.90;;;20.40;58.40;;;;;;4983119;28;20078;-49
2023/06/18 05:13:30;;;;;;;16.63;7.38;;;20.50;58.40;;;;;;4980855;28;20045;-50
2023/06/18 05:16:03;;;;;;;11.15;6.55;;;20.50;58.50;;;;;;4991814;28;20056;-50
2023/06/18 05:18:35;;;;;;;12.00;7.22;;;20.60;58.90;;;;;;4992102;28;20499;-50
2023/06/18 05:21:03;;;;;;;10.05;7.32;;;20.60;58.70;;;;;;4971454;28;20602;-50
2023/06/18 05:23:29;;;;;;;10.40;6.57;;;20.70;58.60;;;;;;4968056;28;20042;-50
2023/06/18 05:25:56;;;;;;;7.97;6.22;;;20.70;58.30;;;;;;4981812;28;20056;-50
2023/06/18 05:28:27;;;;;;;13.13;7.07;;;20.80;57.80;;;;;;4991163;28;20076;-50
2023/06/18 05:30:54;;;;;;;13.60;7.40;;;20.80;57.80;;;;;;4984558;28;20092;-50
2023/06/18 05:33:21;;;;;;;12.23;7.00;;;20.90;57.80;;;;;;4976667;28;20046;-50
2023/06/18 05:35:59;;;;;;;15.60;7.78;;;20.90;57.60;;;;;;4988234;28;20072;-49
2023/06/18 05:38:28;;;;;;;10.55;6.43;;;21.00;58.10;;;;;;4991596;28;20041;-49
2023/06/18 05:40:54;;;;;;;8.07;6.72;;;21.00;57.30;;;;;;4991759;28;20046;-48
2023/06/18 05:43:24;;;;;;;10.27;6.55;;;21.20;57.40;;;;;;4986709;28;20080;-49
2023/06/18 05:46:06;;;;;;;10.05;5.53;;;21.20;56.50;;;;;;4991784;28;20045;-49
2023/06/18 05:48:37;;;;;;;8.65;6.15;;;21.40;56.60;;;;;;4991964;28;20046;-50
2023/06/18 05:51:17;;;;;;;12.13;6.03;;;21.40;55.70;;;;;;4978146;28;20521;-50
2023/06/18 05:53:50;;;;;;;8.73;5.85;;;21.50;55.80;;;;;;4980905;28;20043;-49
2023/06/18 05:56:20;;;;;;;9.95;5.95;;;21.60;56.60;;;;;;4990034;28;20126;-50
2023/06/18 05:58:50;;;;;;;9.60;6.28;;;21.70;56.00;;;;;;5009578;28;20124;-50
2023/06/18 06:01:21;;;;;;;8.95;5.55;;;21.80;55.50;;;;;;4990861;28;20081;-50
2023/06/18 06:03:51;;;;;;;;;;;21.90;55.90;;;;;;4969696;28;20527;-48
2023/06/18 06:06:20;;;;;;;9.15;6.57;;;22.00;55.30;;;;;;4989079;28;19988;-50
2023/06/18 06:08:50;;;;;;;8.13;6.57;;;22.00;54.40;;;;;;4991868;28;20050;-49
2023/06/18 06:11:18;;;;;;;9.98;5.93;;;22.10;54.40;;;;;;4995226;28;20046;-49
2023/06/18 06:13:48;;;;;;;6.20;5.40;;;22.10;54.50;;;;;;4985225;28;20415;-50
2023/06/18 06:16:20;;;;;;;7.25;5.80;;;22.20;53.90;;;;;;4975565;28;20053;-48
2023/06/18 06:18:49;;;;;;;6.10;5.47;;;22.30;54.00;;;;;;5008028;28;20128;-49
2023/06/18 06:21:16;;;;;;;12.70;7.07;;;22.30;53.50;;;;;;4988759;28;20042;-48
2023/06/18 06:23:45;;;;;;;6.70;5.63;;;22.40;54.20;;;;;;4974529;28;20071;-48
2023/06/18 06:26:12;;;;;;;8.02;5.65;;;22.50;53.80;;;;;;4990338;28;20051;-49
2023/06/18 06:28:43;;;;;;;7.43;5.68;;;22.60;52.90;;;;;;4993604;28;20045;-48
2023/06/18 06:31:10;;;;;;;8.32;5.75;;;22.70;52.60;;;;;;4990518;28;20132;-49
2023/06/18 06:33:37;;;;;;;9.23;4.95;;;22.80;52.50;;;;;;4999992;28;20042;-49
2023/06/18 06:36:04;;;;;;;6.45;5.05;;;22.90;52.00;;;;;;4967448;28;20057;-49
2023/06/18 06:38:32;;;;;;;6.60;4.75;;;23.00;51.80;;;;;;4977453;28;20050;-49
2023/06/18 06:40:58;;;;;;;6.20;5.70;;;23.10;51.70;;;;;;4991652;28;20077;-48
2023/06/18 06:43:27;;;;;;;10.60;5.63;;;23.20;51.10;;;;;;4988770;28;20057;-49
2023/06/18 06:46:10;;;;;;;8.77;5.30;;;23.30;50.90;;;;;;4978433;28;20499;-49
2023/06/18 06:48:40;;;;;;;7.55;4.72;;;23.50;50.50;;;;;;5010648;28;20041;-49
2023/06/18 06:51:25;;;;;;;7.50;4.80;;;23.60;50.10;;;;;;4994868;28;20066;-49
2023/06/18 06:54:01;;;;;;;5.25;4.63;;;23.70;49.60;;;;;;4970635;28;20502;-48
2023/06/18 06:56:28;;;;;;;7.43;4.97;;;23.90;48.40;;;;;;4999747;28;20518;-49
2023/06/18 06:58:57;;;;;;;5.30;4.65;;;24.00;48.10;;;;;;4993315;28;20465;-48
2023/06/18 07:01:24;;;;;;;6.10;4.93;;;24.10;47.90;;;;;;4995067;28;20399;-49
2023/06/18 07:03:56;;;;;;;7.65;4.78;;;24.20;47.20;;;;;;4999729;28;20503;-49
2023/06/18 07:06:24;;;;;;;4.63;4.10;;;24.30;46.80;;;;;;5001909;28;20050;-49
2023/06/18 07:08:53;;;;;;;8.02;4.88;;;24.40;47.10;;;;;;5011188;28;20101;-47
2023/06/18 07:11:23;;;;;;;7.93;4.75;;;24.50;47.70;;;;;;5003058;28;20070;-49
2023/06/18 07:13:53;;;;;;;5.95;4.38;;;24.60;46.80;;;;;;4996517;28;20096;-45
2023/06/18 07:16:22;;;;;;;5.97;4.10;;;24.70;46.90;;;;;;4996851;28;20144;-46
2023/06/18 07:18:49;;;;;;;5.72;4.75;;;24.90;46.10;;;;;;4993133;28;20057;-46
2023/06/18 07:21:16;;;;;;;6.85;4.70;;;25.00;46.00;;;;;;5001651;28;20409;-47
2023/06/18 07:23:45;;;;;;;4.82;3.90;;;25.20;45.70;;;;;;4984634;28;20537;-48
2023/06/18 07:26:14;;;;;;;12.43;5.15;;;25.30;45.40;;;;;;4979168;28;20141;-48
2023/06/18 07:28:41;;;;;;;6.95;4.07;;;25.40;45.20;;;;;;5011065;28;20443;-46
2023/06/18 07:31:07;;;;;;;6.78;4.57;;;25.50;45.20;;;;;;5004690;28;20146;-48
2023/06/18 07:33:36;;;;;;;5.70;4.82;;;25.60;44.90;;;;;;4995873;28;20669;-47
2023/06/18 07:36:05;;;;;;;7.07;4.78;;;25.60;44.90;;;;;;5011282;28;20096;-47
2023/06/18 07:38:41;;;;;;;6.03;5.07;;;25.70;43.70;;;;;;5007134;28;20118;-47
2023/06/18 07:41:08;;;;;;;7.20;4.40;;;25.70;43.90;;;;;;4993195;28;20153;-48
2023/06/18 07:43:34;;;;;;;7.18;4.90;;;25.70;43.40;;;;;;4982558;28;20042;-49
2023/06/18 07:46:01;;;;;;;7.65;5.40;;;25.70;43.30;;;;;;4987839;28;20069;-45
2023/06/18 07:48:28;;;;;;;6.68;4.88;;;25.80;43.20;;;;;;4996509;28;20044;-49
2023/06/18 07:50:55;;;;;;;8.65;5.43;;;25.80;43.10;;;;;;4986656;28;20042;-50
2023/06/18 07:53:24;;;;;;;6.57;4.43;;;25.80;42.60;;;;;;4990275;28;20052;-50
2023/06/18 07:55:50;;;;;;;5.05;4.53;;;25.80;42.80;;;;;;4995056;28;20421;-49
2023/06/18 07:58:17;;;;;;;7.75;4.53;;;25.90;42.80;;;;;;4990498;28;20050;-50
2023/06/18 08:00:44;;;;;;;5.55;4.82;;;26.00;42.80;;;;;;5000176;28;20092;-49
2023/06/18 08:03:10;;;;;;;7.63;4.57;;;26.10;42.10;;;;;;4988918;28;20049;-48
2023/06/18 08:05:38;;;;;;;5.35;4.82;;;26.20;42.10;;;;;;4990302;28;20052;-48
2023/06/18 08:08:05;;;;;;;4.63;4.15;;;26.30;41.30;;;;;;4986607;28;20049;-50
2023/06/18 08:10:32;;;;;;;6.55;4.80;;;26.40;41.70;;;;;;4993145;28;20458;-48
2023/06/18 08:12:59;;;;;;;6.05;5.05;;;26.50;41.60;;;;;;5000774;28;20466;-49
2023/06/18 08:15:27;;;;;;;6.25;4.65;;;26.50;41.20;;;;;;4993981;28;20058;-49
2023/06/18 08:17:54;;;;;;;4.82;4.32;;;26.60;42.10;;;;;;4992910;28;20070;-47
2023/06/18 08:20:20;;;;;;;5.78;4.65;;;26.70;41.50;;;;;;4992744;28;20042;-49
2023/06/18 08:22:48;;;;;;;6.30;4.88;;;26.70;41.30;;;;;;4992673;28;20758;-50
2023/06/18 08:25:14;;;;;;;5.85;4.78;;;26.80;40.90;;;;;;4986544;28;20133;-49
2023/06/18 08:27:41;;;;;;;6.10;4.88;;;26.80;41.30;;;;;;5001291;28;20066;-45
2023/06/18 08:30:08;;;;;;;5.13;4.63;;;26.90;41.00;;;;;;5004054;28;20062;-48
2023/06/18 08:32:37;;;;;;;4.97;4.53;;;26.90;40.90;;;;;;4990943;28;20072;-45
2023/06/18 08:35:05;;;;;;;5.35;4.82;;;27.00;40.70;;;;;;4998871;28;20050;-49
2023/06/18 08:37:32;;;;;;;5.18;4.75;;;27.00;40.80;;;;;;4997151;28;20102;-45
2023/06/18 08:39:59;;;;;;;7.05;4.95;;;27.00;40.60;;;;;;4994181;28;20142;-50
2023/06/18 08:42:25;;;;;;;7.25;4.63;;;27.10;40.50;;;;;;4996254;28;20042;-49
2023/06/18 08:44:53;;;;;;;5.50;5.00;;;27.10;40.60;;;;;;5006228;28;20133;-49
2023/06/18 08:47:21;;;;;;;7.22;4.50;;;27.20;40.40;;;;;;5009338;28;20066;-49
2023/06/18 08:49:51;;;;;;;5.18;4.68;;;27.30;40.30;;;;;;4983662;28;20139;-45
2023/06/18 08:52:20;;;;;;;5.22;4.63;;;27.30;40.30;;;;;;4968689;28;20042;-49
2023/06/18 08:54:51;;;;;;;6.05;5.15;;;27.40;40.30;;;;;;4988462;28;20048;-50
2023/06/18 08:57:45;;;;;;;4.75;4.40;;;27.50;40.00;;;;;;5000348;28;20121;-50
2023/06/18 09:00:15;;;;;;;4.85;4.35;;;27.60;39.80;;;;;;5000019;28;20046;-50
2023/06/18 09:02:42;;;;;;;5.25;4.85;;;27.70;40.30;;;;;;4989105;28;20049;-48
2023/06/18 09:05:09;;;;;;;7.03;4.88;;;27.70;39.90;;;;;;5003962;28;20096;-45
2023/06/18 09:07:38;;;;;;;5.22;4.75;;;27.80;39.50;;;;;;4998237;28;20038;-49
2023/06/18 09:10:05;;;;;;;5.60;5.05;;;27.90;40.00;;;;;;4973839;28;20049;-48
2023/06/18 09:12:32;;;;;;;7.25;5.32;;;27.90;39.40;;;;;;4998550;28;20455;-49
2023/06/18 09:14:59;;;;;;;5.25;4.75;;;28.00;39.20;;;;;;5008549;28;20134;-49
2023/06/18 09:17:26;;;;;;;5.40;4.90;;;28.10;39.40;;;;;;4991050;28;20042;-50
2023/06/18 09:19:53;;;;;;;5.57;5.07;;;28.10;39.30;;;;;;5005686;28;20140;-48
2023/06/18 09:22:21;;;;;;;5.70;5.20;;;28.20;39.10;;;;;;5008209;28;20096;-49
2023/06/18 09:24:58;;;;;;;5.05;4.57;;;28.30;39.00;;;;;;4974568;28;20050;-49
2023/06/18 09:27:32;;;;;;;5.95;4.63;;;28.40;38.90;;;;;;4995277;28;20597;-50
2023/06/18 09:30:00;;;;;;;6.35;5.82;;;28.50;38.50;;;;;;5000792;28;20045;-49
2023/06/18 09:32:27;;;;;;;5.38;4.90;;;28.50;38.60;;;;;;4988238;28;20104;-50
2023/06/18 09:34:54;;;;;;;5.05;4.57;;;28.60;38.80;;;;;;5001556;28;20521;-50
2023/06/18 09:37:20;;;;;;;7.00;4.60;;;28.70;38.60;;;;;;4999969;28;20042;-49
2023/06/18 09:39:47;;;;;;;5.53;5.03;;;28.70;38.10;;;;;;4971147;28;1037018;-50
2023/06/18 09:42:14;;;;;;;5.97;5.47;;;28.80;38.10;;;;;;4990641;28;20206;-50
2023/06/18 09:44:45;;;;;;;5.57;5.00;;;28.90;37.50;;;;;;5003740;28;20568;-50
2023/06/18 09:47:14;;;;;;;4.93;4.53;;;29.00;37.30;;;;;;5001681;28;20065;-49
2023/06/18 09:49:49;;;;;;;5.63;5.10;;;29.10;37.10;;;;;;4974782;28;20048;-50
2023/06/18 09:52:19;;;;;;;6.85;4.63;;;29.20;37.30;;;;;;4976736;28;20061;-50
2023/06/18 09:54:47;;;;;;;5.00;4.55;;;29.30;36.80;;;;;;4975181;28;20057;-50
2023/06/18 09:57:15;;;;;;;5.45;4.97;;;29.30;36.60;;;;;;5002714;28;20124;-50
2023/06/18 09:59:42;;;;;;;5.43;4.63;;;29.40;36.80;;;;;;4990887;28;20050;-50
2023/06/18 10:02:13;;;;;;;6.43;5.13;;;29.50;36.40;;;;;;4993720;28;20092;-49
2023/06/18 10:04:40;;;;;;;6.50;5.00;;;29.60;37.00;;;;;;4978027;28;20030;-50
2023/06/18 10:07:15;;;;;;;6.18;4.88;;;29.80;36.90;;;;;;4995185;28;20570;-47
2023/06/18 10:09:45;;;;;;;7.43;5.28;;;29.90;36.20;;;;;;5004775;28;20069;-51
2023/06/18 10:12:15;;;;;;;5.00;4.57;;;29.90;36.00;;;;;;4985624;28;20133;-49
2023/06/18 10:14:42;;;;;;;5.78;5.13;;;29.90;35.80;;;;;;5008066;28;20050;-50
2023/06/18 10:17:23;;;;;;;5.80;4.63;;;30.00;36.00;;;;;;5006208;28;20100;-51
2023/06/18 10:20:06;;;;;;;5.30;4.90;;;30.00;34.90;;;;;;4997068;28;20121;-49
2023/06/18 10:22:49;;;;;;;6.43;5.28;;;30.00;35.00;;;;;;4999107;28;20101;-50
2023/06/18 10:25:19;;;;;;;6.00;5.38;;;30.00;35.50;;;;;;4989957;28;20129;-49
2023/06/18 10:27:46;;;;;;;6.53;5.10;;;30.00;35.50;;;;;;5001197;28;20048;-51
2023/06/18 10:30:13;;;;;;;5.65;5.10;;;30.00;35.40;;;;;;5009300;28;20042;-50
2023/06/18 10:32:42;;;;;;;5.65;5.10;;;30.10;35.70;;;;;;4992226;28;20632;-49
2023/06/18 10:35:12;;;;;;;5.95;5.43;;;30.10;35.80;;;;;;5007438;28;20037;-51
2023/06/18 10:37:43;;;;;;;5.38;4.95;;;30.20;35.30;;;;;;5002956;28;20507;-48
2023/06/18 10:40:11;;;;;;;6.43;5.55;;;30.20;34.90;;;;;;4997346;28;20104;-48
2023/06/18 10:42:38;;;;;;;5.32;4.90;;;30.20;34.80;;;;;;5004780;28;20081;-51
2023/06/18 10:45:15;;;;;;;5.10;4.63;;;30.30;34.90;;;;;;5011796;28;20637;-52
2023/06/18 10:47:42;;;;;;;5.45;4.78;;;30.30;34.60;;;;;;4990308;28;20050;-46
2023/06/18 10:50:16;;;;;;;5.65;5.15;;;30.40;35.20;;;;;;5011323;28;20045;-51
2023/06/18 10:52:51;;;;;;;5.63;4.80;;;30.40;34.80;;;;;;5007005;28;20730;-49
2023/06/18 10:55:20;;;;;;;6.15;5.18;;;30.50;35.10;;;;;;4990486;28;20057;-52
2023/06/18 10:57:58;;;;;;;5.22;4.75;;;30.50;34.60;;;;;;5002794;28;20077;-51
2023/06/18 11:00:30;;;;;;;4.90;4.47;;;30.60;34.70;;;;;;4994700;28;20078;-51
2023/06/18 11:03:05;;;;;;;5.47;5.07;;;30.60;34.80;;;;;;4991719;28;20061;-50
2023/06/18 11:05:32;;;;;;;4.80;4.40;;;30.70;34.40;;;;;;5009232;28;20065;-51
2023/06/18 11:08:04;;;;;;;5.22;4.72;;;30.80;34.80;;;;;;4987466;28;20518;-51
2023/06/18 11:10:49;;;;;;;5.18;4.68;;;30.80;35.10;;;;;;4991633;28;20070;-51
2023/06/18 11:13:17;;;;;;;5.03;4.53;;;30.90;34.30;;;;;;4999423;28;20074;-51
2023/06/18 11:16:02;;;;;;;5.80;4.78;;;31.00;33.20;;;;;;4992212;28;20052;-52
2023/06/18 11:18:30;;;;;;;5.18;4.78;;;31.00;33.60;;;;;;4990380;28;20096;-51
2023/06/18 11:20:58;;;;;;;5.50;5.00;;;31.10;33.80;;;;;;5011374;28;20042;-51
2023/06/18 11:23:26;;;;;;;4.93;4.40;;;31.10;33.80;;;;;;4986211;28;20126;-50
2023/06/18 11:25:53;;;;;;;5.25;4.75;;;31.20;34.60;;;;;;4988033;28;20054;-51
2023/06/18 11:28:22;;;;;;;5.45;5.05;;;31.20;34.60;;;;;;4999190;28;20042;-51
2023/06/18 11:30:51;;;;;;;4.88;4.57;;;31.30;34.00;;;;;;4987311;28;20050;-50
2023/06/18 11:33:23;;;;;;;5.72;5.22;;;31.30;33.80;;;;;;4981341;28;20517;-49
2023/06/18 11:35:51;;;;;;;5.73;4.93;;;31.40;33.60;;;;;;4968484;28;20525;-52
2023/06/18 11:38:19;;;;;;;5.20;4.80;;;31.40;33.90;;;;;;4988482;28;20053;-50
2023/06/18 11:40:50;;;;;;;5.80;5.28;;;31.30;33.90;;;;;;4969366;28;20042;-51
2023/06/18 11:43:18;;;;;;;5.60;5.10;;;31.30;34.10;;;;;;4980814;28;20043;-52
2023/06/18 11:45:52;;;;;;;5.50;5.00;;;31.30;33.70;;;;;;4978592;28;20503;-49
2023/06/18 11:48:22;;;;;;;6.05;4.88;;;31.20;34.30;;;;;;4987047;28;20069;-50
2023/06/18 11:50:53;;;;;;;5.22;4.78;;;31.20;34.70;;;;;;5005500;28;20582;-52
2023/06/18 11:53:23;;;;;;;5.53;5.10;;;31.10;34.30;;;;;;4991035;28;20054;-49
2023/06/18 11:55:53;;;;;;;6.43;5.15;;;31.00;34.40;;;;;;4989770;28;20096;-52
2023/06/18 11:58:21;;;;;;;4.70;4.30;;;30.90;34.90;;;;;;5007729;28;20049;-50
2023/06/18 12:00:50;;;;;;;5.22;4.75;;;30.90;34.30;;;;;;5002114;28;20450;-48
2023/06/18 12:03:19;;;;;;;5.32;4.88;;;30.80;34.50;;;;;;4978347;28;20050;-51
2023/06/18 12:05:46;;;;;;;5.57;5.07;;;30.70;35.10;;;;;;5009392;28;20125;-49
2023/06/18 12:08:14;;;;;;;9.13;5.72;;;30.70;34.40;;;;;;4989391;28;20129;-51
2023/06/18 12:10:42;;;;;;;5.35;4.85;;;30.60;35.60;;;;;;4993173;28;20046;-51
2023/06/18 12:13:28;;;;;;;6.10;5.40;;;30.50;36.50;;;;;;4991296;28;20045;-50
2023/06/18 12:16:23;;;;;;;5.78;5.32;;;30.50;36.80;;;;;;4980311;28;20042;-51
2023/06/18 12:18:57;;;;;;;6.43;5.10;;;30.40;38.60;;;;;;4989315;28;20057;-50
2023/06/18 12:21:24;;;;;;;5.82;5.03;;;30.40;38.80;;;;;;5002317;28;20048;-51
2023/06/18 12:23:53;;;;;;;5.57;5.07;;;30.30;39.50;;;;;;4998408;28;20097;-51
2023/06/18 12:26:19;;;;;;;6.15;5.55;;;30.30;39.10;;;;;;4998101;28;20041;-50
2023/06/18 12:28:47;;;;;;;6.03;5.32;;;30.30;38.20;;;;;;5008975;28;20043;-50
2023/06/18 12:31:13;;;;;;;5.00;4.50;;;30.30;38.50;;;;;;5008464;28;20046;-51
2023/06/18 12:33:44;;;;;;;5.90;5.30;;;30.20;38.60;;;;;;4990243;28;20144;-51
2023/06/18 12:36:10;;;;;;;6.00;5.50;;;30.20;38.10;;;;;;5000699;28;20510;-51
2023/06/18 12:38:41;;;;;;;4.55;4.25;;;30.30;38.20;;;;;;4990813;28;20062;-50
2023/06/18 12:41:09;;;;;;;5.53;4.70;;;30.40;37.80;;;;;;4995847;28;20050;-51
2023/06/18 12:43:40;;;;;;;5.78;4.90;;;30.60;37.40;;;;;;4992198;28;20047;-50
2023/06/18 12:46:06;;;;;;;5.33;4.83;;;30.70;36.80;;;;;;5009733;28;20084;-50
2023/06/18 12:48:43;;;;;;;5.38;4.97;;;30.90;36.90;;;;;;4998149;28;20096;-50
2023/06/18 12:51:11;;;;;;;5.22;4.78;;;31.20;36.40;;;;;;4992228;28;20046;-50
2023/06/18 12:53:41;;;;;;;5.15;4.45;;;31.40;36.00;;;;;;4986275;28;20054;-50
2023/06/18 12:56:22;;;;;;;5.70;5.20;;;31.60;35.20;;;;;;4999078;28;20402;-50
2023/06/18 12:58:50;;;;;;;6.40;4.93;;;31.90;35.00;;;;;;5001207;28;20045;-47
2023/06/18 13:01:18;;;;;;;5.65;5.10;;;32.10;35.00;;;;;;5003109;28;20049;-52